sensor_id;sensor_type;location;lat;lon;timestamp;P1;durP1;ratioP1;P2;durP2;ratioP2
57087;SDS011;42965;52.846;6.614;2023-02-28T00:00:25;9.77;;;4.55;;
57087;SDS011;42965;52.846;6.614;2023-02-28T00:02:52;9.05;;;4.55;;
57087;SDS011;42965;52.846;6.614;2023-02-28T00:05:20;13.10;;;4.40;;
57087;SDS011;42965;52.846;6.614;2023-02-28T00:07:50;8.07;;;3.47;;
57087;SDS011;42965;52.846;6.614;2023-02-28T00:10:17;6.30;;;3.92;;
57087;SDS011;42965;52.846;6.614;2023-02-28T00:12:56;9.93;;;4.05;;
57087;SDS011;42965;52.846;6.614;2023-02-28T00:15:26;9.55;;;4.18;;
57087;SDS011;42965;52.846;6.614;2023-02-28T00:17:52;9.48;;;4.13;;
57087;SDS011;42965;52.846;6.614;2023-02-28T00:20:19;11.63;;;4.28;;
57087;SDS011;42965;52.846;6.614;2023-02-28T00:22:47;8.57;;;5.25;;
57087;SDS011;42965;52.846;6.614;2023-02-28T00:25:16;7.97;;;4.03;;
57087;SDS011;42965;52.846;6.614;2023-02-28T00:27:45;9.27;;;4.82;;
57087;SDS011;42965;52.846;6.614;2023-02-28T00:30:13;7.03;;;4.13;;
57087;SDS011;42965;52.846;6.614;2023-02-28T00:32:42;9.55;;;4.43;;
57087;SDS011;42965;52.846;6.614;2023-02-28T00:35:09;13.43;;;4.07;;
57087;SDS011;42965;52.846;6.614;2023-02-28T00:37:37;8.40;;;4.00;;
57087;SDS011;42965;52.846;6.614;2023-02-28T00:40:05;11.77;;;4.43;;
57087;SDS011;42965;52.846;6.614;2023-02-28T00:42:32;10.95;;;5.13;;
57087;SDS011;42965;52.846;6.614;2023-02-28T00:45:00;9.25;;;4.28;;
57087;SDS011;42965;52.846;6.614;2023-02-28T00:47:27;9.90;;;4.57;;
57087;SDS011;42965;52.846;6.614;2023-02-28T00:49:53;9.38;;;4.30;;
57087;SDS011;42965;52.846;6.614;2023-02-28T00:52:19;9.20;;;4.65;;
57087;SDS011;42965;52.846;6.614;2023-02-28T00:54:47;13.45;;;5.45;;
57087;SDS011;42965;52.846;6.614;2023-02-28T00:57:14;9.80;;;4.88;;
57087;SDS011;42965;52.846;6.614;2023-02-28T00:59:40;14.38;;;4.85;;
57087;SDS011;42965;52.846;6.614;2023-02-28T01:02:06;9.63;;;3.95;;
57087;SDS011;42965;52.846;6.614;2023-02-28T01:04:33;10.40;;;4.68;;
57087;SDS011;42965;52.846;6.614;2023-02-28T01:07:03;8.90;;;4.90;;
57087;SDS011;42965;52.846;6.614;2023-02-28T01:09:29;9.40;;;4.45;;
57087;SDS011;42965;52.846;6.614;2023-02-28T01:11:55;11.15;;;4.82;;
57087;SDS011;42965;52.846;6.614;2023-02-28T01:14:22;9.43;;;4.45;;
57087;SDS011;42965;52.846;6.614;2023-02-28T01:16:48;7.95;;;3.90;;
57087;SDS011;42965;52.846;6.614;2023-02-28T01:19:14;8.55;;;4.13;;
57087;SDS011;42965;52.846;6.614;2023-02-28T01:21:41;9.63;;;4.38;;
57087;SDS011;42965;52.846;6.614;2023-02-28T01:24:08;7.63;;;4.63;;
57087;SDS011;42965;52.846;6.614;2023-02-28T01:26:34;9.35;;;4.47;;
57087;SDS011;42965;52.846;6.614;2023-02-28T01:29:01;9.63;;;4.18;;
57087;SDS011;42965;52.846;6.614;2023-02-28T01:31:27;9.02;;;4.28;;
57087;SDS011;42965;52.846;6.614;2023-02-28T01:33:57;8.85;;;4.03;;
57087;SDS011;42965;52.846;6.614;2023-02-28T01:38:55;7.88;;;3.75;;
57087;SDS011;42965;52.846;6.614;2023-02-28T01:41:23;7.50;;;4.07;;
57087;SDS011;42965;52.846;6.614;2023-02-28T01:44:03;6.22;;;3.60;;
57087;SDS011;42965;52.846;6.614;2023-02-28T01:46:51;10.63;;;4.40;;
57087;SDS011;42965;52.846;6.614;2023-02-28T01:49:17;9.00;;;4.15;;
57087;SDS011;42965;52.846;6.614;2023-02-28T01:51:45;7.28;;;4.00;;
57087;SDS011;42965;52.846;6.614;2023-02-28T01:54:20;7.95;;;4.13;;
57087;SDS011;42965;52.846;6.614;2023-02-28T01:57:07;7.25;;;3.70;;
57087;SDS011;42965;52.846;6.614;2023-02-28T02:02:28;8.00;;;4.03;;
57087;SDS011;42965;52.846;6.614;2023-02-28T02:05:10;6.70;;;3.83;;
57087;SDS011;42965;52.846;6.614;2023-02-28T02:08:12;8.25;;;5.38;;
57087;SDS011;42965;52.846;6.614;2023-02-28T02:10:43;8.60;;;4.55;;
57087;SDS011;42965;52.846;6.614;2023-02-28T02:19:20;12.05;;;5.07;;
57087;SDS011;42965;52.846;6.614;2023-02-28T02:33:13;8.93;;;4.65;;
57087;SDS011;42965;52.846;6.614;2023-02-28T02:35:54;7.82;;;4.68;;
57087;SDS011;42965;52.846;6.614;2023-02-28T02:41:24;7.50;;;4.40;;
57087;SDS011;42965;52.846;6.614;2023-02-28T02:47:07;9.18;;;4.22;;
57087;SDS011;42965;52.846;6.614;2023-02-28T02:49:38;8.30;;;4.70;;
57087;SDS011;42965;52.846;6.614;2023-02-28T02:52:08;10.48;;;4.72;;
57087;SDS011;42965;52.846;6.614;2023-02-28T02:54:45;9.93;;;5.28;;
57087;SDS011;42965;52.846;6.614;2023-02-28T02:57:20;12.35;;;4.82;;
57087;SDS011;42965;52.846;6.614;2023-02-28T02:59:53;10.43;;;5.68;;
57087;SDS011;42965;52.846;6.614;2023-02-28T03:02:21;9.93;;;5.80;;
57087;SDS011;42965;52.846;6.614;2023-02-28T03:04:51;15.73;;;5.68;;
57087;SDS011;42965;52.846;6.614;2023-02-28T03:07:26;10.63;;;5.30;;
57087;SDS011;42965;52.846;6.614;2023-02-28T03:09:54;8.65;;;5.57;;
57087;SDS011;42965;52.846;6.614;2023-02-28T03:12:57;11.25;;;5.93;;
57087;SDS011;42965;52.846;6.614;2023-02-28T03:15:23;11.70;;;6.20;;
57087;SDS011;42965;52.846;6.614;2023-02-28T03:20:40;10.00;;;6.22;;
57087;SDS011;42965;52.846;6.614;2023-02-28T03:23:21;14.25;;;7.03;;
57087;SDS011;42965;52.846;6.614;2023-02-28T03:25:59;12.95;;;8.00;;
57087;SDS011;42965;52.846;6.614;2023-02-28T03:28:41;11.88;;;8.77;;
57087;SDS011;42965;52.846;6.614;2023-02-28T03:33:49;16.52;;;10.23;;
57087;SDS011;42965;52.846;6.614;2023-02-28T03:39:27;21.25;;;12.02;;
57087;SDS011;42965;52.846;6.614;2023-02-28T03:42:21;17.77;;;11.48;;
57087;SDS011;42965;52.846;6.614;2023-02-28T03:44:54;20.55;;;13.30;;
57087;SDS011;42965;52.846;6.614;2023-02-28T03:47:29;15.88;;;12.95;;
57087;SDS011;42965;52.846;6.614;2023-02-28T03:50:20;18.15;;;12.40;;
57087;SDS011;42965;52.846;6.614;2023-02-28T03:52:58;17.98;;;12.00;;
57087;SDS011;42965;52.846;6.614;2023-02-28T03:55:31;22.50;;;13.23;;
57087;SDS011;42965;52.846;6.614;2023-02-28T03:58:14;18.42;;;12.68;;
57087;SDS011;42965;52.846;6.614;2023-02-28T04:00:46;18.92;;;13.45;;
57087;SDS011;42965;52.846;6.614;2023-02-28T04:03:16;20.35;;;12.98;;
57087;SDS011;42965;52.846;6.614;2023-02-28T04:06:00;19.58;;;12.73;;
57087;SDS011;42965;52.846;6.614;2023-02-28T04:08:27;20.77;;;12.73;;
57087;SDS011;42965;52.846;6.614;2023-02-28T04:11:54;18.77;;;12.50;;
57087;SDS011;42965;52.846;6.614;2023-02-28T04:13:55;19.23;;;12.35;;
57087;SDS011;42965;52.846;6.614;2023-02-28T04:16:22;17.95;;;12.40;;
57087;SDS011;42965;52.846;6.614;2023-02-28T04:18:48;19.77;;;12.77;;
57087;SDS011;42965;52.846;6.614;2023-02-28T04:21:14;18.63;;;13.13;;
57087;SDS011;42965;52.846;6.614;2023-02-28T04:23:41;19.25;;;12.98;;
57087;SDS011;42965;52.846;6.614;2023-02-28T04:26:07;16.33;;;12.20;;
57087;SDS011;42965;52.846;6.614;2023-02-28T04:28:33;19.25;;;12.30;;
57087;SDS011;42965;52.846;6.614;2023-02-28T04:31:03;19.02;;;13.23;;
57087;SDS011;42965;52.846;6.614;2023-02-28T04:33:31;19.10;;;13.05;;
57087;SDS011;42965;52.846;6.614;2023-02-28T04:36:02;17.35;;;13.02;;
57087;SDS011;42965;52.846;6.614;2023-02-28T04:38:35;20.55;;;14.50;;
57087;SDS011;42965;52.846;6.614;2023-02-28T04:41:03;24.15;;;14.05;;
57087;SDS011;42965;52.846;6.614;2023-02-28T04:43:30;23.40;;;14.95;;
57087;SDS011;42965;52.846;6.614;2023-02-28T04:45:57;35.67;;;23.33;;
57087;SDS011;42965;52.846;6.614;2023-02-28T04:48:29;30.58;;;19.27;;
57087;SDS011;42965;52.846;6.614;2023-02-28T04:51:01;26.20;;;18.60;;
57087;SDS011;42965;52.846;6.614;2023-02-28T04:53:32;28.40;;;16.80;;
57087;SDS011;42965;52.846;6.614;2023-02-28T04:55:58;20.50;;;14.88;;
57087;SDS011;42965;52.846;6.614;2023-02-28T04:58:25;21.60;;;14.38;;
57087;SDS011;42965;52.846;6.614;2023-02-28T05:00:52;22.40;;;13.77;;
57087;SDS011;42965;52.846;6.614;2023-02-28T05:03:18;22.42;;;14.18;;
57087;SDS011;42965;52.846;6.614;2023-02-28T05:05:46;21.80;;;13.93;;
57087;SDS011;42965;52.846;6.614;2023-02-28T05:08:13;21.40;;;14.32;;
57087;SDS011;42965;52.846;6.614;2023-02-28T05:10:39;22.40;;;13.70;;
57087;SDS011;42965;52.846;6.614;2023-02-28T05:13:06;23.98;;;13.93;;
57087;SDS011;42965;52.846;6.614;2023-02-28T05:15:35;19.15;;;14.18;;
57087;SDS011;42965;52.846;6.614;2023-02-28T05:18:01;21.65;;;14.73;;
57087;SDS011;42965;52.846;6.614;2023-02-28T05:20:27;20.45;;;14.10;;
57087;SDS011;42965;52.846;6.614;2023-02-28T05:22:53;19.08;;;13.85;;
57087;SDS011;42965;52.846;6.614;2023-02-28T05:25:20;27.45;;;16.58;;
57087;SDS011;42965;52.846;6.614;2023-02-28T05:27:49;20.58;;;14.45;;
57087;SDS011;42965;52.846;6.614;2023-02-28T05:30:15;19.92;;;14.40;;
57087;SDS011;42965;52.846;6.614;2023-02-28T05:32:42;22.92;;;15.20;;
57087;SDS011;42965;52.846;6.614;2023-02-28T05:35:09;25.85;;;15.18;;
57087;SDS011;42965;52.846;6.614;2023-02-28T05:37:39;24.52;;;15.50;;
57087;SDS011;42965;52.846;6.614;2023-02-28T05:40:07;22.88;;;16.05;;
57087;SDS011;42965;52.846;6.614;2023-02-28T05:42:37;23.08;;;13.77;;
57087;SDS011;42965;52.846;6.614;2023-02-28T05:45:04;21.50;;;14.50;;
57087;SDS011;42965;52.846;6.614;2023-02-28T05:47:32;23.00;;;15.63;;
57087;SDS011;42965;52.846;6.614;2023-02-28T05:49:59;24.65;;;15.43;;
57087;SDS011;42965;52.846;6.614;2023-02-28T05:52:27;22.30;;;14.13;;
57087;SDS011;42965;52.846;6.614;2023-02-28T05:54:55;21.50;;;14.05;;
57087;SDS011;42965;52.846;6.614;2023-02-28T05:57:22;22.75;;;14.48;;
57087;SDS011;42965;52.846;6.614;2023-02-28T05:59:49;19.48;;;13.70;;
57087;SDS011;42965;52.846;6.614;2023-02-28T06:02:16;22.02;;;14.70;;
57087;SDS011;42965;52.846;6.614;2023-02-28T06:04:43;22.50;;;15.48;;
57087;SDS011;42965;52.846;6.614;2023-02-28T06:07:09;19.77;;;14.57;;
57087;SDS011;42965;52.846;6.614;2023-02-28T06:09:36;21.40;;;14.85;;
57087;SDS011;42965;52.846;6.614;2023-02-28T06:12:04;27.10;;;15.00;;
57087;SDS011;42965;52.846;6.614;2023-02-28T06:14:33;19.35;;;13.30;;
57087;SDS011;42965;52.846;6.614;2023-02-28T06:17:00;21.80;;;14.57;;
57087;SDS011;42965;52.846;6.614;2023-02-28T06:19:27;22.63;;;14.75;;
57087;SDS011;42965;52.846;6.614;2023-02-28T06:21:54;23.48;;;16.58;;
57087;SDS011;42965;52.846;6.614;2023-02-28T06:24:23;22.80;;;15.38;;
57087;SDS011;42965;52.846;6.614;2023-02-28T06:26:51;27.60;;;16.50;;
57087;SDS011;42965;52.846;6.614;2023-02-28T06:29:17;23.85;;;16.58;;
57087;SDS011;42965;52.846;6.614;2023-02-28T06:31:44;24.42;;;17.42;;
57087;SDS011;42965;52.846;6.614;2023-02-28T06:34:12;23.55;;;16.33;;
57087;SDS011;42965;52.846;6.614;2023-02-28T06:36:42;22.05;;;15.82;;
57087;SDS011;42965;52.846;6.614;2023-02-28T06:39:09;24.48;;;17.20;;
57087;SDS011;42965;52.846;6.614;2023-02-28T06:41:36;25.38;;;15.98;;
57087;SDS011;42965;52.846;6.614;2023-02-28T06:44:11;23.35;;;16.25;;
57087;SDS011;42965;52.846;6.614;2023-02-28T06:46:40;25.95;;;17.67;;
57087;SDS011;42965;52.846;6.614;2023-02-28T06:49:07;25.38;;;17.75;;
57087;SDS011;42965;52.846;6.614;2023-02-28T06:51:37;24.23;;;17.13;;
57087;SDS011;42965;52.846;6.614;2023-02-28T06:54:05;24.52;;;17.35;;
57087;SDS011;42965;52.846;6.614;2023-02-28T06:56:35;25.45;;;16.92;;
57087;SDS011;42965;52.846;6.614;2023-02-28T06:59:03;23.55;;;16.08;;
57087;SDS011;42965;52.846;6.614;2023-02-28T07:01:32;22.20;;;15.63;;
57087;SDS011;42965;52.846;6.614;2023-02-28T07:04:00;23.80;;;15.68;;
57087;SDS011;42965;52.846;6.614;2023-02-28T07:06:27;22.75;;;16.58;;
57087;SDS011;42965;52.846;6.614;2023-02-28T07:08:54;25.13;;;16.60;;
57087;SDS011;42965;52.846;6.614;2023-02-28T07:11:24;23.98;;;16.65;;
57087;SDS011;42965;52.846;6.614;2023-02-28T07:13:53;21.90;;;16.00;;
57087;SDS011;42965;52.846;6.614;2023-02-28T07:16:21;23.23;;;16.52;;
57087;SDS011;42965;52.846;6.614;2023-02-28T07:18:49;22.67;;;16.10;;
57087;SDS011;42965;52.846;6.614;2023-02-28T07:21:18;22.30;;;16.35;;
57087;SDS011;42965;52.846;6.614;2023-02-28T07:23:44;22.02;;;15.75;;
57087;SDS011;42965;52.846;6.614;2023-02-28T07:26:12;22.30;;;15.60;;
57087;SDS011;42965;52.846;6.614;2023-02-28T07:28:42;22.33;;;15.90;;
57087;SDS011;42965;52.846;6.614;2023-02-28T07:31:08;23.08;;;15.70;;
57087;SDS011;42965;52.846;6.614;2023-02-28T07:33:36;24.73;;;16.88;;
57087;SDS011;42965;52.846;6.614;2023-02-28T07:36:04;23.63;;;15.90;;
57087;SDS011;42965;52.846;6.614;2023-02-28T07:38:36;21.77;;;15.52;;
57087;SDS011;42965;52.846;6.614;2023-02-28T07:41:03;23.63;;;15.40;;
57087;SDS011;42965;52.846;6.614;2023-02-28T07:43:31;25.15;;;15.77;;
57087;SDS011;42965;52.846;6.614;2023-02-28T07:46:05;24.55;;;17.13;;
57087;SDS011;42965;52.846;6.614;2023-02-28T07:48:34;21.35;;;16.38;;
57087;SDS011;42965;52.846;6.614;2023-02-28T07:51:00;17.45;;;13.73;;
57087;SDS011;42965;52.846;6.614;2023-02-28T07:53:27;19.70;;;14.73;;
57087;SDS011;42965;52.846;6.614;2023-02-28T07:55:55;17.40;;;13.77;;
57087;SDS011;42965;52.846;6.614;2023-02-28T07:58:23;17.55;;;13.02;;
57087;SDS011;42965;52.846;6.614;2023-02-28T08:00:51;16.10;;;12.85;;
57087;SDS011;42965;52.846;6.614;2023-02-28T08:03:18;18.48;;;12.95;;
57087;SDS011;42965;52.846;6.614;2023-02-28T08:05:50;16.33;;;13.00;;
57087;SDS011;42965;52.846;6.614;2023-02-28T08:08:18;18.52;;;12.15;;
57087;SDS011;42965;52.846;6.614;2023-02-28T08:10:44;15.20;;;12.43;;
57087;SDS011;42965;52.846;6.614;2023-02-28T08:13:10;18.23;;;12.55;;
57087;SDS011;42965;52.846;6.614;2023-02-28T08:15:37;15.75;;;11.30;;
57087;SDS011;42965;52.846;6.614;2023-02-28T08:18:05;14.13;;;10.38;;
57087;SDS011;42965;52.846;6.614;2023-02-28T08:20:31;14.15;;;10.50;;
57087;SDS011;42965;52.846;6.614;2023-02-28T08:22:59;15.98;;;10.88;;
57087;SDS011;42965;52.846;6.614;2023-02-28T08:25:26;15.63;;;11.68;;
57087;SDS011;42965;52.846;6.614;2023-02-28T08:27:52;15.10;;;11.38;;
57087;SDS011;42965;52.846;6.614;2023-02-28T08:30:18;13.40;;;10.43;;
57087;SDS011;42965;52.846;6.614;2023-02-28T08:32:45;14.15;;;12.02;;
57087;SDS011;42965;52.846;6.614;2023-02-28T08:35:15;15.60;;;11.60;;
57087;SDS011;42965;52.846;6.614;2023-02-28T08:37:42;15.43;;;11.13;;
57087;SDS011;42965;52.846;6.614;2023-02-28T08:40:08;17.17;;;12.10;;
57087;SDS011;42965;52.846;6.614;2023-02-28T08:42:36;18.40;;;11.55;;
57087;SDS011;42965;52.846;6.614;2023-02-28T08:45:03;16.55;;;11.93;;
57087;SDS011;42965;52.846;6.614;2023-02-28T08:47:30;14.75;;;11.77;;
57087;SDS011;42965;52.846;6.614;2023-02-28T08:49:56;15.43;;;10.75;;
57087;SDS011;42965;52.846;6.614;2023-02-28T08:52:22;14.30;;;11.73;;
57087;SDS011;42965;52.846;6.614;2023-02-28T08:54:51;14.57;;;11.85;;
57087;SDS011;42965;52.846;6.614;2023-02-28T08:57:18;12.63;;;10.90;;
57087;SDS011;42965;52.846;6.614;2023-02-28T08:59:44;15.80;;;11.95;;
57087;SDS011;42965;52.846;6.614;2023-02-28T09:02:13;13.90;;;11.32;;
57087;SDS011;42965;52.846;6.614;2023-02-28T09:04:40;15.35;;;10.02;;
57087;SDS011;42965;52.846;6.614;2023-02-28T09:07:07;12.25;;;9.70;;
57087;SDS011;42965;52.846;6.614;2023-02-28T09:09:38;14.02;;;10.55;;
57087;SDS011;42965;52.846;6.614;2023-02-28T09:12:22;11.05;;;8.50;;
57087;SDS011;42965;52.846;6.614;2023-02-28T09:14:50;11.67;;;8.10;;
57087;SDS011;42965;52.846;6.614;2023-02-28T09:17:16;11.70;;;8.43;;
57087;SDS011;42965;52.846;6.614;2023-02-28T09:19:43;10.70;;;8.30;;
57087;SDS011;42965;52.846;6.614;2023-02-28T09:22:10;10.57;;;8.30;;
57087;SDS011;42965;52.846;6.614;2023-02-28T09:24:37;10.52;;;8.43;;
57087;SDS011;42965;52.846;6.614;2023-02-28T09:27:04;10.82;;;8.85;;
57087;SDS011;42965;52.846;6.614;2023-02-28T09:29:32;10.35;;;8.00;;
57087;SDS011;42965;52.846;6.614;2023-02-28T09:32:02;9.65;;;7.82;;
57087;SDS011;42965;52.846;6.614;2023-02-28T09:34:31;10.55;;;7.50;;
57087;SDS011;42965;52.846;6.614;2023-02-28T09:36:58;8.32;;;6.68;;
57087;SDS011;42965;52.846;6.614;2023-02-28T09:39:24;10.23;;;7.63;;
57087;SDS011;42965;52.846;6.614;2023-02-28T09:41:52;12.80;;;7.38;;
57087;SDS011;42965;52.846;6.614;2023-02-28T09:46:50;11.70;;;7.93;;
57087;SDS011;42965;52.846;6.614;2023-02-28T09:49:22;10.30;;;7.72;;
57087;SDS011;42965;52.846;6.614;2023-02-28T09:54:28;9.13;;;6.40;;
57087;SDS011;42965;52.846;6.614;2023-02-28T09:57:01;9.13;;;7.30;;
57087;SDS011;42965;52.846;6.614;2023-02-28T09:59:41;6.05;;;4.22;;
57087;SDS011;42965;52.846;6.614;2023-02-28T10:05:14;8.95;;;4.32;;
57087;SDS011;42965;52.846;6.614;2023-02-28T10:16:01;6.63;;;3.53;;
57087;SDS011;42965;52.846;6.614;2023-02-28T10:18:46;6.57;;;3.63;;
57087;SDS011;42965;52.846;6.614;2023-02-28T10:21:23;5.78;;;3.40;;
57087;SDS011;42965;52.846;6.614;2023-02-28T10:23:59;5.88;;;3.50;;
57087;SDS011;42965;52.846;6.614;2023-02-28T10:26:32;6.95;;;3.40;;
57087;SDS011;42965;52.846;6.614;2023-02-28T10:28:59;4.20;;;2.83;;
57087;SDS011;42965;52.846;6.614;2023-02-28T10:31:25;4.07;;;2.80;;
57087;SDS011;42965;52.846;6.614;2023-02-28T10:33:52;6.30;;;3.33;;
57087;SDS011;42965;52.846;6.614;2023-02-28T10:36:19;4.78;;;2.60;;
57087;SDS011;42965;52.846;6.614;2023-02-28T10:38:51;7.43;;;3.28;;
57087;SDS011;42965;52.846;6.614;2023-02-28T10:44:12;6.20;;;3.17;;
57087;SDS011;42965;52.846;6.614;2023-02-28T10:46:50;4.88;;;2.40;;
57087;SDS011;42965;52.846;6.614;2023-02-28T10:49:19;6.53;;;2.65;;
57087;SDS011;42965;52.846;6.614;2023-02-28T10:51:54;3.90;;;2.20;;
57087;SDS011;42965;52.846;6.614;2023-02-28T10:54:27;6.72;;;2.83;;
57087;SDS011;42965;52.846;6.614;2023-02-28T10:59:44;4.38;;;2.67;;
57087;SDS011;42965;52.846;6.614;2023-02-28T11:02:32;4.70;;;2.33;;
57087;SDS011;42965;52.846;6.614;2023-02-28T11:08:04;5.00;;;2.58;;
57087;SDS011;42965;52.846;6.614;2023-02-28T11:10:39;3.90;;;2.17;;
57087;SDS011;42965;52.846;6.614;2023-02-28T11:13:20;4.80;;;2.33;;
57087;SDS011;42965;52.846;6.614;2023-02-28T11:15:54;5.32;;;2.30;;
57087;SDS011;42965;52.846;6.614;2023-02-28T11:18:27;4.78;;;2.83;;
57087;SDS011;42965;52.846;6.614;2023-02-28T11:20:57;5.82;;;2.50;;
57087;SDS011;42965;52.846;6.614;2023-02-28T11:23:28;3.25;;;2.10;;
57087;SDS011;42965;52.846;6.614;2023-02-28T11:25:58;3.70;;;2.17;;
57087;SDS011;42965;52.846;6.614;2023-02-28T11:28:40;4.72;;;2.20;;
57087;SDS011;42965;52.846;6.614;2023-02-28T11:33:52;6.63;;;2.45;;
57087;SDS011;42965;52.846;6.614;2023-02-28T11:38:50;5.40;;;2.30;;
57087;SDS011;42965;52.846;6.614;2023-02-28T11:44:21;4.40;;;2.45;;
57087;SDS011;42965;52.846;6.614;2023-02-28T11:47:00;4.72;;;2.25;;
57087;SDS011;42965;52.846;6.614;2023-02-28T11:55:16;6.00;;;2.35;;
57087;SDS011;42965;52.846;6.614;2023-02-28T12:07:00;4.22;;;2.30;;
57087;SDS011;42965;52.846;6.614;2023-02-28T12:12:36;3.38;;;2.55;;
57087;SDS011;42965;52.846;6.614;2023-02-28T12:15:28;6.38;;;3.08;;
57087;SDS011;42965;52.846;6.614;2023-02-28T12:18:21;5.47;;;2.42;;
57087;SDS011;42965;52.846;6.614;2023-02-28T12:31:49;4.57;;;2.40;;
57087;SDS011;42965;52.846;6.614;2023-02-28T12:34:31;4.32;;;2.28;;
57087;SDS011;42965;52.846;6.614;2023-02-28T12:37:02;5.32;;;2.10;;
57087;SDS011;42965;52.846;6.614;2023-02-28T12:39:34;3.95;;;2.40;;
57087;SDS011;42965;52.846;6.614;2023-02-28T12:42:10;4.65;;;1.67;;
57087;SDS011;42965;52.846;6.614;2023-02-28T12:44:52;4.00;;;2.00;;
57087;SDS011;42965;52.846;6.614;2023-02-28T12:47:24;4.30;;;2.35;;
57087;SDS011;42965;52.846;6.614;2023-02-28T12:50:07;4.60;;;2.05;;
57087;SDS011;42965;52.846;6.614;2023-02-28T12:52:47;7.22;;;3.53;;
57087;SDS011;42965;52.846;6.614;2023-02-28T12:58:20;3.28;;;2.05;;
57087;SDS011;42965;52.846;6.614;2023-02-28T13:06:26;4.18;;;2.58;;
57087;SDS011;42965;52.846;6.614;2023-02-28T13:09:11;3.42;;;2.70;;
57087;SDS011;42965;52.846;6.614;2023-02-28T13:11:50;2.92;;;2.25;;
57087;SDS011;42965;52.846;6.614;2023-02-28T13:14:19;3.63;;;2.20;;
57087;SDS011;42965;52.846;6.614;2023-02-28T13:19:37;4.85;;;3.47;;
57087;SDS011;42965;52.846;6.614;2023-02-28T13:29:42;4.28;;;2.38;;
57087;SDS011;42965;52.846;6.614;2023-02-28T13:39:54;3.53;;;2.03;;
57087;SDS011;42965;52.846;6.614;2023-02-28T13:45:28;4.70;;;2.30;;
57087;SDS011;42965;52.846;6.614;2023-02-28T13:48:03;4.10;;;2.08;;
57087;SDS011;42965;52.846;6.614;2023-02-28T13:50:40;4.28;;;2.45;;
57087;SDS011;42965;52.846;6.614;2023-02-28T13:56:01;10.18;;;6.78;;
57087;SDS011;42965;52.846;6.614;2023-02-28T14:07:23;4.75;;;2.85;;
57087;SDS011;42965;52.846;6.614;2023-02-28T14:10:01;4.15;;;2.25;;
57087;SDS011;42965;52.846;6.614;2023-02-28T14:21:02;5.53;;;3.22;;
57087;SDS011;42965;52.846;6.614;2023-02-28T14:32:32;5.03;;;3.00;;
57087;SDS011;42965;52.846;6.614;2023-02-28T14:38:52;4.87;;;3.03;;
57087;SDS011;42965;52.846;6.614;2023-02-28T14:41:03;4.72;;;2.67;;
57087;SDS011;42965;52.846;6.614;2023-02-28T14:43:46;4.65;;;3.03;;
57087;SDS011;42965;52.846;6.614;2023-02-28T14:46:18;6.65;;;4.18;;
57087;SDS011;42965;52.846;6.614;2023-02-28T14:48:47;12.25;;;8.23;;
57087;SDS011;42965;52.846;6.614;2023-02-28T14:51:19;8.10;;;4.55;;
57087;SDS011;42965;52.846;6.614;2023-02-28T14:53:49;5.72;;;3.50;;
57087;SDS011;42965;52.846;6.614;2023-02-28T14:56:27;5.75;;;3.92;;
57087;SDS011;42965;52.846;6.614;2023-02-28T14:59:02;5.45;;;3.00;;
57087;SDS011;42965;52.846;6.614;2023-02-28T15:01:30;5.60;;;3.50;;
57087;SDS011;42965;52.846;6.614;2023-02-28T15:04:02;8.18;;;4.80;;
57087;SDS011;42965;52.846;6.614;2023-02-28T15:06:41;5.28;;;3.03;;
57087;SDS011;42965;52.846;6.614;2023-02-28T15:11:35;6.10;;;3.20;;
57087;SDS011;42965;52.846;6.614;2023-02-28T15:14:03;7.90;;;3.63;;
57087;SDS011;42965;52.846;6.614;2023-02-28T15:16:40;7.07;;;4.38;;
57087;SDS011;42965;52.846;6.614;2023-02-28T15:22:00;4.95;;;2.90;;
57087;SDS011;42965;52.846;6.614;2023-02-28T15:24:40;4.68;;;3.20;;
57087;SDS011;42965;52.846;6.614;2023-02-28T15:27:29;5.10;;;3.78;;
57087;SDS011;42965;52.846;6.614;2023-02-28T15:29:59;6.93;;;3.75;;
57087;SDS011;42965;52.846;6.614;2023-02-28T15:32:40;4.30;;;3.13;;
57087;SDS011;42965;52.846;6.614;2023-02-28T15:35:17;4.57;;;2.67;;
57087;SDS011;42965;52.846;6.614;2023-02-28T15:37:55;4.30;;;3.00;;
57087;SDS011;42965;52.846;6.614;2023-02-28T15:41:04;5.18;;;2.67;;
57087;SDS011;42965;52.846;6.614;2023-02-28T15:43:25;7.13;;;3.85;;
57087;SDS011;42965;52.846;6.614;2023-02-28T15:46:10;6.07;;;4.57;;
57087;SDS011;42965;52.846;6.614;2023-02-28T15:48:43;5.53;;;3.40;;
57087;SDS011;42965;52.846;6.614;2023-02-28T15:51:23;7.03;;;3.55;;
57087;SDS011;42965;52.846;6.614;2023-02-28T15:54:04;4.88;;;3.50;;
57087;SDS011;42965;52.846;6.614;2023-02-28T15:56:43;16.45;;;12.10;;
57087;SDS011;42965;52.846;6.614;2023-02-28T15:59:16;5.20;;;3.70;;
57087;SDS011;42965;52.846;6.614;2023-02-28T16:04:36;6.55;;;4.15;;
57087;SDS011;42965;52.846;6.614;2023-02-28T16:07:11;6.80;;;4.72;;
57087;SDS011;42965;52.846;6.614;2023-02-28T16:09:38;7.22;;;5.25;;
57087;SDS011;42965;52.846;6.614;2023-02-28T16:12:05;6.40;;;4.43;;
57087;SDS011;42965;52.846;6.614;2023-02-28T16:14:33;7.22;;;3.90;;
57087;SDS011;42965;52.846;6.614;2023-02-28T16:17:04;6.63;;;4.05;;
57087;SDS011;42965;52.846;6.614;2023-02-28T16:19:34;7.07;;;4.90;;
57087;SDS011;42965;52.846;6.614;2023-02-28T16:22:00;5.97;;;4.70;;
57087;SDS011;42965;52.846;6.614;2023-02-28T16:24:27;5.55;;;4.28;;
57087;SDS011;42965;52.846;6.614;2023-02-28T16:26:53;6.40;;;4.95;;
57087;SDS011;42965;52.846;6.614;2023-02-28T16:29:29;7.57;;;4.32;;
57087;SDS011;42965;52.846;6.614;2023-02-28T16:32:00;7.30;;;4.55;;
57087;SDS011;42965;52.846;6.614;2023-02-28T16:34:30;6.07;;;3.92;;
57087;SDS011;42965;52.846;6.614;2023-02-28T16:37:13;6.90;;;4.10;;
57087;SDS011;42965;52.846;6.614;2023-02-28T16:39:42;5.75;;;3.70;;
57087;SDS011;42965;52.846;6.614;2023-02-28T16:42:11;7.05;;;4.20;;
57087;SDS011;42965;52.846;6.614;2023-02-28T16:44:44;6.40;;;3.55;;
57087;SDS011;42965;52.846;6.614;2023-02-28T16:47:12;5.75;;;4.45;;
57087;SDS011;42965;52.846;6.614;2023-02-28T16:49:38;5.75;;;4.80;;
57087;SDS011;42965;52.846;6.614;2023-02-28T16:52:09;6.50;;;4.95;;
57087;SDS011;42965;52.846;6.614;2023-02-28T16:54:40;5.32;;;3.80;;
57087;SDS011;42965;52.846;6.614;2023-02-28T16:57:18;6.55;;;3.95;;
57087;SDS011;42965;52.846;6.614;2023-02-28T16:59:48;5.50;;;3.50;;
57087;SDS011;42965;52.846;6.614;2023-02-28T17:02:17;4.93;;;3.63;;
57087;SDS011;42965;52.846;6.614;2023-02-28T17:04:45;5.47;;;4.00;;
57087;SDS011;42965;52.846;6.614;2023-02-28T17:07:13;6.45;;;3.97;;
57087;SDS011;42965;52.846;6.614;2023-02-28T17:09:42;6.70;;;4.47;;
57087;SDS011;42965;52.846;6.614;2023-02-28T17:12:09;6.78;;;4.88;;
57087;SDS011;42965;52.846;6.614;2023-02-28T17:14:37;7.82;;;5.85;;
57087;SDS011;42965;52.846;6.614;2023-02-28T17:17:04;6.32;;;5.72;;
57087;SDS011;42965;52.846;6.614;2023-02-28T17:19:31;6.60;;;5.80;;
57087;SDS011;42965;52.846;6.614;2023-02-28T17:22:01;6.85;;;5.63;;
57087;SDS011;42965;52.846;6.614;2023-02-28T17:24:29;8.07;;;5.22;;
57087;SDS011;42965;52.846;6.614;2023-02-28T17:26:55;6.47;;;5.30;;
57087;SDS011;42965;52.846;6.614;2023-02-28T17:29:21;11.25;;;8.60;;
57087;SDS011;42965;52.846;6.614;2023-02-28T17:31:50;8.85;;;6.75;;
57087;SDS011;42965;52.846;6.614;2023-02-28T17:34:16;9.25;;;7.45;;
57087;SDS011;42965;52.846;6.614;2023-02-28T17:36:46;10.95;;;8.27;;
57087;SDS011;42965;52.846;6.614;2023-02-28T17:39:15;9.68;;;7.18;;
57087;SDS011;42965;52.846;6.614;2023-02-28T17:41:50;9.20;;;7.35;;
57087;SDS011;42965;52.846;6.614;2023-02-28T17:44:20;9.90;;;7.75;;
57087;SDS011;42965;52.846;6.614;2023-02-28T17:46:47;8.25;;;7.05;;